sensor_id;sensor_type;location;lat;lon;timestamp;P1;durP1;ratioP1;P2;durP2;ratioP2
25381;SDS011;16307;42.896;20.874;2022-11-15T00:01:25;108.07;;;53.30;;
25381;SDS011;16307;42.896;20.874;2022-11-15T00:04:30;95.03;;;50.00;;
25381;SDS011;16307;42.896;20.874;2022-11-15T00:07:35;91.90;;;45.95;;
25381;SDS011;16307;42.896;20.874;2022-11-15T00:11:01;85.50;;;41.83;;
25381;SDS011;16307;42.896;20.874;2022-11-15T00:14:06;79.97;;;41.58;;
25381;SDS011;16307;42.896;20.874;2022-11-15T00:17:11;89.03;;;44.72;;
25381;SDS011;16307;42.896;20.874;2022-11-15T00:20:16;100.28;;;52.13;;
25381;SDS011;16307;42.896;20.874;2022-11-15T00:23:21;95.72;;;46.80;;
25381;SDS011;16307;42.896;20.874;2022-11-15T00:26:26;91.82;;;48.30;;
25381;SDS011;16307;42.896;20.874;2022-11-15T00:29:31;96.18;;;48.88;;
25381;SDS011;16307;42.896;20.874;2022-11-15T00:32:36;97.50;;;45.47;;
25381;SDS011;16307;42.896;20.874;2022-11-15T00:35:41;86.55;;;43.45;;
25381;SDS011;16307;42.896;20.874;2022-11-15T00:38:46;104.75;;;52.97;;
25381;SDS011;16307;42.896;20.874;2022-11-15T00:41:50;88.57;;;44.15;;
25381;SDS011;16307;42.896;20.874;2022-11-15T00:44:55;86.70;;;45.42;;
25381;SDS011;16307;42.896;20.874;2022-11-15T00:48:00;90.95;;;45.53;;
25381;SDS011;16307;42.896;20.874;2022-11-15T00:51:05;80.03;;;40.97;;
25381;SDS011;16307;42.896;20.874;2022-11-15T00:54:09;79.45;;;39.15;;
25381;SDS011;16307;42.896;20.874;2022-11-15T00:57:14;72.35;;;38.70;;
25381;SDS011;16307;42.896;20.874;2022-11-15T01:00:19;78.53;;;40.85;;
25381;SDS011;16307;42.896;20.874;2022-11-15T01:03:24;84.43;;;42.05;;
25381;SDS011;16307;42.896;20.874;2022-11-15T01:06:28;194.25;;;78.18;;
25381;SDS011;16307;42.896;20.874;2022-11-15T01:09:33;144.10;;;61.47;;
25381;SDS011;16307;42.896;20.874;2022-11-15T01:12:38;128.15;;;56.22;;
25381;SDS011;16307;42.896;20.874;2022-11-15T01:15:43;120.13;;;53.30;;
25381;SDS011;16307;42.896;20.874;2022-11-15T01:18:48;105.72;;;50.50;;
25381;SDS011;16307;42.896;20.874;2022-11-15T01:21:52;102.45;;;48.33;;
25381;SDS011;16307;42.896;20.874;2022-11-15T01:24:57;92.90;;;45.83;;
25381;SDS011;16307;42.896;20.874;2022-11-15T01:28:02;88.78;;;43.88;;
25381;SDS011;16307;42.896;20.874;2022-11-15T01:31:12;87.18;;;44.80;;
25381;SDS011;16307;42.896;20.874;2022-11-15T01:34:18;94.35;;;46.13;;
25381;SDS011;16307;42.896;20.874;2022-11-15T01:37:23;100.18;;;47.42;;
25381;SDS011;16307;42.896;20.874;2022-11-15T01:40:28;103.07;;;47.88;;
25381;SDS011;16307;42.896;20.874;2022-11-15T01:43:34;100.53;;;46.90;;
25381;SDS011;16307;42.896;20.874;2022-11-15T01:46:40;93.43;;;46.00;;
25381;SDS011;16307;42.896;20.874;2022-11-15T01:53:22;98.78;;;46.70;;
25381;SDS011;16307;42.896;20.874;2022-11-15T01:56:29;98.97;;;46.28;;
25381;SDS011;16307;42.896;20.874;2022-11-15T01:59:37;95.57;;;45.72;;
25381;SDS011;16307;42.896;20.874;2022-11-15T02:02:43;91.00;;;44.67;;
25381;SDS011;16307;42.896;20.874;2022-11-15T02:05:47;86.20;;;43.53;;
25381;SDS011;16307;42.896;20.874;2022-11-15T02:08:53;101.15;;;49.25;;
25381;SDS011;16307;42.896;20.874;2022-11-15T02:11:58;110.18;;;50.75;;
25381;SDS011;16307;42.896;20.874;2022-11-15T02:15:04;92.80;;;45.72;;
25381;SDS011;16307;42.896;20.874;2022-11-15T02:18:22;83.07;;;41.08;;
25381;SDS011;16307;42.896;20.874;2022-11-15T02:21:33;87.78;;;43.00;;
25381;SDS011;16307;42.896;20.874;2022-11-15T02:34:46;79.38;;;40.25;;
25381;SDS011;16307;42.896;20.874;2022-11-15T02:38:30;90.45;;;42.72;;
25381;SDS011;16307;42.896;20.874;2022-11-15T02:44:59;66.50;;;33.70;;
25381;SDS011;16307;42.896;20.874;2022-11-15T02:48:08;73.05;;;37.78;;
25381;SDS011;16307;42.896;20.874;2022-11-15T02:51:14;64.25;;;35.63;;
25381;SDS011;16307;42.896;20.874;2022-11-15T02:54:21;67.85;;;35.03;;
25381;SDS011;16307;42.896;20.874;2022-11-15T03:00:35;70.63;;;34.08;;
25381;SDS011;16307;42.896;20.874;2022-11-15T03:03:53;70.00;;;35.35;;
25381;SDS011;16307;42.896;20.874;2022-11-15T03:20:55;62.88;;;33.78;;
25381;SDS011;16307;42.896;20.874;2022-11-15T03:24:03;63.15;;;34.17;;
25381;SDS011;16307;42.896;20.874;2022-11-15T03:27:10;63.25;;;33.47;;
25381;SDS011;16307;42.896;20.874;2022-11-15T03:30:17;79.10;;;40.50;;
25381;SDS011;16307;42.896;20.874;2022-11-15T03:33:22;92.45;;;46.50;;
25381;SDS011;16307;42.896;20.874;2022-11-15T03:36:27;106.68;;;51.40;;
25381;SDS011;16307;42.896;20.874;2022-11-15T03:39:33;111.20;;;50.63;;
25381;SDS011;16307;42.896;20.874;2022-11-15T03:46:05;83.72;;;43.90;;
25381;SDS011;16307;42.896;20.874;2022-11-15T03:49:27;68.18;;;35.53;;
25381;SDS011;16307;42.896;20.874;2022-11-15T03:52:35;69.80;;;35.47;;
25381;SDS011;16307;42.896;20.874;2022-11-15T03:55:41;68.93;;;34.00;;
25381;SDS011;16307;42.896;20.874;2022-11-15T03:58:46;63.08;;;33.80;;
25381;SDS011;16307;42.896;20.874;2022-11-15T04:01:51;65.75;;;34.47;;
25381;SDS011;16307;42.896;20.874;2022-11-15T04:04:56;67.43;;;34.40;;
25381;SDS011;16307;42.896;20.874;2022-11-15T04:08:01;65.68;;;34.50;;
25381;SDS011;16307;42.896;20.874;2022-11-15T04:11:06;66.63;;;36.95;;
25381;SDS011;16307;42.896;20.874;2022-11-15T04:14:11;69.03;;;35.72;;
25381;SDS011;16307;42.896;20.874;2022-11-15T04:17:15;63.22;;;34.05;;
25381;SDS011;16307;42.896;20.874;2022-11-15T04:20:21;66.75;;;34.25;;
25381;SDS011;16307;42.896;20.874;2022-11-15T04:23:46;71.22;;;35.42;;
25381;SDS011;16307;42.896;20.874;2022-11-15T04:27:09;70.57;;;34.80;;
25381;SDS011;16307;42.896;20.874;2022-11-15T04:30:14;62.85;;;35.58;;
25381;SDS011;16307;42.896;20.874;2022-11-15T04:33:19;62.22;;;33.70;;
25381;SDS011;16307;42.896;20.874;2022-11-15T04:36:24;69.38;;;35.00;;
25381;SDS011;16307;42.896;20.874;2022-11-15T04:39:47;62.20;;;34.30;;
25381;SDS011;16307;42.896;20.874;2022-11-15T04:42:51;71.38;;;35.40;;
25381;SDS011;16307;42.896;20.874;2022-11-15T04:45:56;72.35;;;36.03;;
25381;SDS011;16307;42.896;20.874;2022-11-15T04:49:01;69.43;;;36.45;;
25381;SDS011;16307;42.896;20.874;2022-11-15T04:52:06;75.03;;;37.35;;
25381;SDS011;16307;42.896;20.874;2022-11-15T04:55:10;66.78;;;36.72;;
25381;SDS011;16307;42.896;20.874;2022-11-15T04:58:15;67.43;;;35.88;;
25381;SDS011;16307;42.896;20.874;2022-11-15T05:01:20;67.03;;;35.85;;
25381;SDS011;16307;42.896;20.874;2022-11-15T05:04:25;66.57;;;35.42;;
25381;SDS011;16307;42.896;20.874;2022-11-15T05:07:30;73.78;;;37.35;;
25381;SDS011;16307;42.896;20.874;2022-11-15T05:10:35;75.50;;;38.53;;
25381;SDS011;16307;42.896;20.874;2022-11-15T05:13:40;74.18;;;37.95;;
25381;SDS011;16307;42.896;20.874;2022-11-15T05:16:45;71.35;;;37.72;;
25381;SDS011;16307;42.896;20.874;2022-11-15T05:19:49;68.35;;;35.78;;
25381;SDS011;16307;42.896;20.874;2022-11-15T05:22:56;67.22;;;34.72;;
25381;SDS011;16307;42.896;20.874;2022-11-15T05:26:02;71.70;;;34.42;;
25381;SDS011;16307;42.896;20.874;2022-11-15T05:29:13;64.80;;;34.80;;
25381;SDS011;16307;42.896;20.874;2022-11-15T05:32:18;63.08;;;35.13;;
25381;SDS011;16307;42.896;20.874;2022-11-15T05:35:29;68.50;;;34.97;;
25381;SDS011;16307;42.896;20.874;2022-11-15T05:38:36;62.33;;;35.45;;
25381;SDS011;16307;42.896;20.874;2022-11-15T05:41:52;63.63;;;34.55;;
25381;SDS011;16307;42.896;20.874;2022-11-15T05:44:58;68.65;;;37.10;;
25381;SDS011;16307;42.896;20.874;2022-11-15T05:48:04;62.78;;;35.65;;
25381;SDS011;16307;42.896;20.874;2022-11-15T05:51:11;70.20;;;39.75;;
25381;SDS011;16307;42.896;20.874;2022-11-15T05:54:16;79.13;;;40.70;;
25381;SDS011;16307;42.896;20.874;2022-11-15T05:57:22;83.72;;;45.58;;
25381;SDS011;16307;42.896;20.874;2022-11-15T06:00:27;82.18;;;44.70;;
25381;SDS011;16307;42.896;20.874;2022-11-15T06:03:33;79.35;;;42.72;;
25381;SDS011;16307;42.896;20.874;2022-11-15T06:06:37;79.50;;;41.53;;
25381;SDS011;16307;42.896;20.874;2022-11-15T06:09:42;75.80;;;39.15;;
25381;SDS011;16307;42.896;20.874;2022-11-15T06:12:47;73.03;;;38.55;;
25381;SDS011;16307;42.896;20.874;2022-11-15T06:16:03;66.47;;;37.55;;
25381;SDS011;16307;42.896;20.874;2022-11-15T06:19:09;72.80;;;38.25;;
25381;SDS011;16307;42.896;20.874;2022-11-15T06:22:13;76.97;;;39.25;;
25381;SDS011;16307;42.896;20.874;2022-11-15T06:25:18;82.10;;;43.88;;
25381;SDS011;16307;42.896;20.874;2022-11-15T06:28:22;78.82;;;39.40;;
25381;SDS011;16307;42.896;20.874;2022-11-15T06:31:27;74.45;;;39.28;;
25381;SDS011;16307;42.896;20.874;2022-11-15T06:34:32;76.85;;;40.03;;
25381;SDS011;16307;42.896;20.874;2022-11-15T06:37:37;88.88;;;50.95;;
25381;SDS011;16307;42.896;20.874;2022-11-15T06:48:39;73.00;;;37.75;;
25381;SDS011;16307;42.896;20.874;2022-11-15T06:51:44;72.60;;;37.72;;
25381;SDS011;16307;42.896;20.874;2022-11-15T06:54:49;72.97;;;41.25;;
25381;SDS011;16307;42.896;20.874;2022-11-15T06:57:54;76.18;;;41.47;;
25381;SDS011;16307;42.896;20.874;2022-11-15T07:00:59;74.35;;;41.35;;
25381;SDS011;16307;42.896;20.874;2022-11-15T07:04:08;78.53;;;42.13;;
25381;SDS011;16307;42.896;20.874;2022-11-15T07:07:13;77.10;;;40.85;;
25381;SDS011;16307;42.896;20.874;2022-11-15T07:10:18;76.63;;;40.20;;
25381;SDS011;16307;42.896;20.874;2022-11-15T07:13:26;82.00;;;39.92;;
25381;SDS011;16307;42.896;20.874;2022-11-15T07:16:33;83.93;;;45.97;;
25381;SDS011;16307;42.896;20.874;2022-11-15T07:19:38;88.25;;;47.45;;
25381;SDS011;16307;42.896;20.874;2022-11-15T07:22:43;80.32;;;42.00;;
25381;SDS011;16307;42.896;20.874;2022-11-15T07:25:49;83.05;;;42.90;;
25381;SDS011;16307;42.896;20.874;2022-11-15T07:28:54;86.15;;;44.67;;
25381;SDS011;16307;42.896;20.874;2022-11-15T07:31:59;105.38;;;57.38;;
25381;SDS011;16307;42.896;20.874;2022-11-15T07:35:04;95.53;;;48.10;;
25381;SDS011;16307;42.896;20.874;2022-11-15T07:38:09;114.25;;;57.85;;
25381;SDS011;16307;42.896;20.874;2022-11-15T07:41:13;112.95;;;58.55;;
25381;SDS011;16307;42.896;20.874;2022-11-15T07:44:18;103.97;;;52.65;;
25381;SDS011;16307;42.896;20.874;2022-11-15T07:47:23;98.47;;;48.65;;
25381;SDS011;16307;42.896;20.874;2022-11-15T07:50:28;90.68;;;44.83;;
25381;SDS011;16307;42.896;20.874;2022-11-15T07:53:34;80.28;;;41.78;;
25381;SDS011;16307;42.896;20.874;2022-11-15T07:56:39;88.45;;;43.47;;
25381;SDS011;16307;42.896;20.874;2022-11-15T07:59:43;86.85;;;41.75;;
25381;SDS011;16307;42.896;20.874;2022-11-15T08:02:48;73.78;;;42.45;;
25381;SDS011;16307;42.896;20.874;2022-11-15T08:05:53;82.40;;;44.45;;
25381;SDS011;16307;42.896;20.874;2022-11-15T08:08:57;78.15;;;41.80;;
25381;SDS011;16307;42.896;20.874;2022-11-15T08:12:02;76.72;;;43.03;;
25381;SDS011;16307;42.896;20.874;2022-11-15T08:15:08;70.43;;;40.80;;
25381;SDS011;16307;42.896;20.874;2022-11-15T08:18:14;74.95;;;44.72;;
25381;SDS011;16307;42.896;20.874;2022-11-15T08:21:19;88.15;;;44.78;;
25381;SDS011;16307;42.896;20.874;2022-11-15T08:24:25;79.55;;;43.47;;
25381;SDS011;16307;42.896;20.874;2022-11-15T08:27:29;93.82;;;49.25;;
25381;SDS011;16307;42.896;20.874;2022-11-15T08:30:35;102.57;;;54.63;;
25381;SDS011;16307;42.896;20.874;2022-11-15T08:33:41;100.15;;;53.72;;
25381;SDS011;16307;42.896;20.874;2022-11-15T08:36:46;105.40;;;51.47;;
25381;SDS011;16307;42.896;20.874;2022-11-15T08:39:51;98.10;;;52.47;;
25381;SDS011;16307;42.896;20.874;2022-11-15T08:42:56;114.13;;;56.83;;
25381;SDS011;16307;42.896;20.874;2022-11-15T08:46:03;117.50;;;57.70;;
25381;SDS011;16307;42.896;20.874;2022-11-15T08:49:07;101.15;;;53.33;;
25381;SDS011;16307;42.896;20.874;2022-11-15T08:52:13;110.93;;;57.10;;
25381;SDS011;16307;42.896;20.874;2022-11-15T08:55:17;99.20;;;48.65;;
25381;SDS011;16307;42.896;20.874;2022-11-15T08:58:27;99.47;;;50.42;;
25381;SDS011;16307;42.896;20.874;2022-11-15T09:15:48;103.72;;;57.75;;
25381;SDS011;16307;42.896;20.874;2022-11-15T09:35:21;105.55;;;53.63;;
25381;SDS011;16307;42.896;20.874;2022-11-15T09:38:26;101.45;;;53.92;;
25381;SDS011;16307;42.896;20.874;2022-11-15T09:41:47;96.90;;;48.38;;
25381;SDS011;16307;42.896;20.874;2022-11-15T09:48:51;87.35;;;46.10;;
25381;SDS011;16307;42.896;20.874;2022-11-15T09:51:52;99.57;;;51.33;;
25381;SDS011;16307;42.896;20.874;2022-11-15T09:54:39;90.50;;;48.95;;
25381;SDS011;16307;42.896;20.874;2022-11-15T09:57:41;90.85;;;48.30;;
25381;SDS011;16307;42.896;20.874;2022-11-15T10:00:38;86.88;;;45.70;;
25381;SDS011;16307;42.896;20.874;2022-11-15T10:03:36;88.82;;;48.90;;
25381;SDS011;16307;42.896;20.874;2022-11-15T10:06:25;91.25;;;47.50;;
25381;SDS011;16307;42.896;20.874;2022-11-15T10:12:08;90.55;;;46.95;;
25381;SDS011;16307;42.896;20.874;2022-11-15T10:14:58;97.45;;;48.63;;
25381;SDS011;16307;42.896;20.874;2022-11-15T10:21:02;80.57;;;45.53;;
25381;SDS011;16307;42.896;20.874;2022-11-15T10:24:09;74.47;;;41.30;;
25381;SDS011;16307;42.896;20.874;2022-11-15T10:26:57;76.80;;;39.45;;
25381;SDS011;16307;42.896;20.874;2022-11-15T10:29:44;75.57;;;39.08;;
25381;SDS011;16307;42.896;20.874;2022-11-15T10:32:31;74.05;;;41.67;;
25381;SDS011;16307;42.896;20.874;2022-11-15T10:35:26;74.18;;;39.97;;
25381;SDS011;16307;42.896;20.874;2022-11-15T10:38:13;73.65;;;39.83;;
25381;SDS011;16307;42.896;20.874;2022-11-15T10:41:06;70.03;;;37.70;;
25381;SDS011;16307;42.896;20.874;2022-11-15T10:47:07;63.88;;;34.67;;
25381;SDS011;16307;42.896;20.874;2022-11-15T10:50:30;69.40;;;35.95;;
25381;SDS011;16307;42.896;20.874;2022-11-15T10:53:25;61.30;;;31.65;;
25381;SDS011;16307;42.896;20.874;2022-11-15T10:56:14;65.20;;;34.75;;
25381;SDS011;16307;42.896;20.874;2022-11-15T10:59:03;62.22;;;33.20;;
25381;SDS011;16307;42.896;20.874;2022-11-15T11:01:49;66.35;;;33.40;;
25381;SDS011;16307;42.896;20.874;2022-11-15T11:04:51;51.78;;;28.17;;
25381;SDS011;16307;42.896;20.874;2022-11-15T11:07:37;60.60;;;30.38;;
25381;SDS011;16307;42.896;20.874;2022-11-15T11:10:23;52.20;;;27.58;;
25381;SDS011;16307;42.896;20.874;2022-11-15T11:13:30;56.05;;;27.60;;
25381;SDS011;16307;42.896;20.874;2022-11-15T11:19:08;46.63;;;24.73;;
25381;SDS011;16307;42.896;20.874;2022-11-15T11:38:11;53.08;;;27.33;;
25381;SDS011;16307;42.896;20.874;2022-11-15T11:47:39;55.53;;;28.55;;
25381;SDS011;16307;42.896;20.874;2022-11-15T11:50:45;65.55;;;28.60;;
25381;SDS011;16307;42.896;20.874;2022-11-15T11:53:40;56.88;;;28.60;;
25381;SDS011;16307;42.896;20.874;2022-11-15T12:11:17;47.67;;;24.92;;
25381;SDS011;16307;42.896;20.874;2022-11-15T12:17:13;54.42;;;27.27;;
25381;SDS011;16307;42.896;20.874;2022-11-15T12:20:03;49.83;;;26.13;;
25381;SDS011;16307;42.896;20.874;2022-11-15T12:29:01;42.10;;;22.83;;
25381;SDS011;16307;42.896;20.874;2022-11-15T12:31:53;45.00;;;23.70;;
25381;SDS011;16307;42.896;20.874;2022-11-15T12:34:46;49.45;;;22.35;;
25381;SDS011;16307;42.896;20.874;2022-11-15T12:40:36;49.05;;;24.30;;
25381;SDS011;16307;42.896;20.874;2022-11-15T12:43:45;44.20;;;23.17;;
25381;SDS011;16307;42.896;20.874;2022-11-15T12:52:09;53.17;;;26.17;;
25381;SDS011;16307;42.896;20.874;2022-11-15T12:54:56;50.28;;;24.10;;
25381;SDS011;16307;42.896;20.874;2022-11-15T12:57:44;45.28;;;23.48;;
25381;SDS011;16307;42.896;20.874;2022-11-15T13:03:17;46.05;;;22.75;;
25381;SDS011;16307;42.896;20.874;2022-11-15T13:06:09;43.92;;;23.02;;
25381;SDS011;16307;42.896;20.874;2022-11-15T13:17:54;46.83;;;21.77;;
25381;SDS011;16307;42.896;20.874;2022-11-15T13:20:44;43.30;;;22.55;;
25381;SDS011;16307;42.896;20.874;2022-11-15T13:23:30;45.15;;;23.45;;
25381;SDS011;16307;42.896;20.874;2022-11-15T13:26:16;52.75;;;23.63;;
25381;SDS011;16307;42.896;20.874;2022-11-15T13:29:02;44.63;;;22.00;;
25381;SDS011;16307;42.896;20.874;2022-11-15T13:31:48;55.42;;;23.88;;
25381;SDS011;16307;42.896;20.874;2022-11-15T13:34:34;42.72;;;20.63;;
25381;SDS011;16307;42.896;20.874;2022-11-15T13:46:15;47.63;;;23.77;;
25381;SDS011;16307;42.896;20.874;2022-11-15T13:49:04;48.40;;;24.90;;
25381;SDS011;16307;42.896;20.874;2022-11-15T13:51:59;41.63;;;22.65;;
25381;SDS011;16307;42.896;20.874;2022-11-15T13:57:42;52.65;;;24.92;;
25381;SDS011;16307;42.896;20.874;2022-11-15T14:00:33;52.15;;;25.77;;
25381;SDS011;16307;42.896;20.874;2022-11-15T14:03:27;51.35;;;26.45;;
25381;SDS011;16307;42.896;20.874;2022-11-15T14:06:15;52.55;;;26.45;;
25381;SDS011;16307;42.896;20.874;2022-11-15T14:11:56;51.10;;;24.33;;
25381;SDS011;16307;42.896;20.874;2022-11-15T14:14:46;59.58;;;27.25;;
25381;SDS011;16307;42.896;20.874;2022-11-15T14:17:33;59.50;;;28.38;;
25381;SDS011;16307;42.896;20.874;2022-11-15T14:23:26;68.07;;;34.70;;
25381;SDS011;16307;42.896;20.874;2022-11-15T14:26:30;81.75;;;36.83;;
25381;SDS011;16307;42.896;20.874;2022-11-15T14:32:13;71.05;;;35.58;;
25381;SDS011;16307;42.896;20.874;2022-11-15T14:35:12;78.00;;;35.95;;
25381;SDS011;16307;42.896;20.874;2022-11-15T14:38:01;71.35;;;35.33;;
25381;SDS011;16307;42.896;20.874;2022-11-15T14:40:47;77.78;;;38.83;;
25381;SDS011;16307;42.896;20.874;2022-11-15T14:43:33;76.15;;;37.35;;
25381;SDS011;16307;42.896;20.874;2022-11-15T14:46:19;71.68;;;37.63;;
25381;SDS011;16307;42.896;20.874;2022-11-15T14:49:05;79.25;;;38.22;;
25381;SDS011;16307;42.896;20.874;2022-11-15T14:51:51;78.97;;;38.33;;
25381;SDS011;16307;42.896;20.874;2022-11-15T14:54:37;77.57;;;40.35;;
25381;SDS011;16307;42.896;20.874;2022-11-15T14:57:23;80.07;;;39.90;;
25381;SDS011;16307;42.896;20.874;2022-11-15T15:00:10;73.47;;;37.30;;
25381;SDS011;16307;42.896;20.874;2022-11-15T15:02:57;70.82;;;36.08;;
25381;SDS011;16307;42.896;20.874;2022-11-15T15:05:43;73.03;;;38.65;;
25381;SDS011;16307;42.896;20.874;2022-11-15T15:08:30;89.70;;;39.08;;
25381;SDS011;16307;42.896;20.874;2022-11-15T15:11:20;79.47;;;40.50;;
25381;SDS011;16307;42.896;20.874;2022-11-15T15:14:08;84.32;;;41.90;;
25381;SDS011;16307;42.896;20.874;2022-11-15T15:16:54;86.07;;;40.65;;
25381;SDS011;16307;42.896;20.874;2022-11-15T15:19:40;81.78;;;41.42;;
25381;SDS011;16307;42.896;20.874;2022-11-15T15:22:26;80.93;;;41.88;;
25381;SDS011;16307;42.896;20.874;2022-11-15T15:25:21;82.60;;;37.85;;
25381;SDS011;16307;42.896;20.874;2022-11-15T15:28:12;80.88;;;41.17;;
25381;SDS011;16307;42.896;20.874;2022-11-15T15:30:58;77.13;;;39.92;;
25381;SDS011;16307;42.896;20.874;2022-11-15T15:33:44;81.55;;;38.42;;
25381;SDS011;16307;42.896;20.874;2022-11-15T15:36:30;71.30;;;36.75;;
25381;SDS011;16307;42.896;20.874;2022-11-15T15:39:16;79.97;;;37.75;;
25381;SDS011;16307;42.896;20.874;2022-11-15T15:42:02;80.28;;;37.67;;
25381;SDS011;16307;42.896;20.874;2022-11-15T15:44:49;73.65;;;35.83;;
25381;SDS011;16307;42.896;20.874;2022-11-15T15:47:36;74.18;;;37.67;;
25381;SDS011;16307;42.896;20.874;2022-11-15T15:50:24;70.13;;;36.30;;
25381;SDS011;16307;42.896;20.874;2022-11-15T15:53:12;73.95;;;36.92;;
25381;SDS011;16307;42.896;20.874;2022-11-15T15:55:58;82.03;;;38.00;;
25381;SDS011;16307;42.896;20.874;2022-11-15T15:58:44;69.80;;;35.78;;
25381;SDS011;16307;42.896;20.874;2022-11-15T16:01:30;81.47;;;38.38;;
25381;SDS011;16307;42.896;20.874;2022-11-15T16:04:16;77.45;;;38.15;;
25381;SDS011;16307;42.896;20.874;2022-11-15T16:07:02;76.28;;;39.88;;
25381;SDS011;16307;42.896;20.874;2022-11-15T16:09:50;81.18;;;38.53;;
25381;SDS011;16307;42.896;20.874;2022-11-15T16:12:48;79.22;;;38.97;;
25381;SDS011;16307;42.896;20.874;2022-11-15T16:15:34;76.28;;;37.88;;
25381;SDS011;16307;42.896;20.874;2022-11-15T16:18:20;75.10;;;37.25;;
25381;SDS011;16307;42.896;20.874;2022-11-15T16:21:07;81.88;;;38.53;;
25381;SDS011;16307;42.896;20.874;2022-11-15T16:23:53;83.15;;;38.80;;
25381;SDS011;16307;42.896;20.874;2022-11-15T16:26:39;78.35;;;37.95;;
25381;SDS011;16307;42.896;20.874;2022-11-15T16:29:26;76.38;;;36.50;;
25381;SDS011;16307;42.896;20.874;2022-11-15T16:32:12;73.85;;;37.35;;
25381;SDS011;16307;42.896;20.874;2022-11-15T16:34:58;74.25;;;37.47;;
25381;SDS011;16307;42.896;20.874;2022-11-15T16:37:44;72.82;;;38.35;;
25381;SDS011;16307;42.896;20.874;2022-11-15T16:40:32;76.45;;;36.83;;
25381;SDS011;16307;42.896;20.874;2022-11-15T16:43:19;74.25;;;35.90;;
25381;SDS011;16307;42.896;20.874;2022-11-15T16:46:21;87.97;;;43.47;;
25381;SDS011;16307;42.896;20.874;2022-11-15T16:49:12;80.13;;;39.35;;
25381;SDS011;16307;42.896;20.874;2022-11-15T16:51:59;83.20;;;42.10;;
25381;SDS011;16307;42.896;20.874;2022-11-15T16:54:45;81.55;;;40.83;;
25381;SDS011;16307;42.896;20.874;2022-11-15T16:57:32;76.75;;;40.70;;
25381;SDS011;16307;42.896;20.874;2022-11-15T17:00:18;76.70;;;39.75;;
25381;SDS011;16307;42.896;20.874;2022-11-15T17:03:04;81.13;;;39.70;;
25381;SDS011;16307;42.896;20.874;2022-11-15T17:05:51;87.00;;;44.20;;
25381;SDS011;16307;42.896;20.874;2022-11-15T17:08:37;93.60;;;47.20;;
25381;SDS011;16307;42.896;20.874;2022-11-15T17:11:23;93.50;;;47.50;;
25381;SDS011;16307;42.896;20.874;2022-11-15T17:14:10;85.53;;;44.40;;
25381;SDS011;16307;42.896;20.874;2022-11-15T17:16:56;86.15;;;42.35;;
25381;SDS011;16307;42.896;20.874;2022-11-15T17:19:43;89.43;;;43.03;;
25381;SDS011;16307;42.896;20.874;2022-11-15T17:22:29;85.55;;;42.63;;
25381;SDS011;16307;42.896;20.874;2022-11-15T17:25:15;74.30;;;40.53;;
25381;SDS011;16307;42.896;20.874;2022-11-15T17:28:02;83.82;;;41.85;;
25381;SDS011;16307;42.896;20.874;2022-11-15T17:30:48;78.97;;;41.08;;
25381;SDS011;16307;42.896;20.874;2022-11-15T17:33:34;82.40;;;41.72;;
25381;SDS011;16307;42.896;20.874;2022-11-15T17:36:21;80.63;;;38.78;;
25381;SDS011;16307;42.896;20.874;2022-11-15T17:39:07;77.97;;;41.45;;
25381;SDS011;16307;42.896;20.874;2022-11-15T17:41:53;89.25;;;46.20;;
25381;SDS011;16307;42.896;20.874;2022-11-15T17:44:39;86.47;;;41.60;;
25381;SDS011;16307;42.896;20.874;2022-11-15T17:47:26;84.75;;;42.92;;
25381;SDS011;16307;42.896;20.874;2022-11-15T17:50:11;89.70;;;45.97;;
25381;SDS011;16307;42.896;20.874;2022-11-15T17:52:58;93.45;;;44.95;;
25381;SDS011;16307;42.896;20.874;2022-11-15T17:55:44;91.90;;;45.90;;
25381;SDS011;16307;42.896;20.874;2022-11-15T17:58:31;85.65;;;44.80;;
25381;SDS011;16307;42.896;20.874;2022-11-15T18:04:12;93.28;;;44.40;;
25381;SDS011;16307;42.896;20.874;2022-11-15T18:06:59;90.45;;;44.17;;
25381;SDS011;16307;42.896;20.874;2022-11-15T18:09:45;92.25;;;47.92;;
25381;SDS011;16307;42.896;20.874;2022-11-15T18:12:31;94.10;;;45.28;;
25381;SDS011;16307;42.896;20.874;2022-11-15T18:15:17;100.85;;;50.58;;
25381;SDS011;16307;42.896;20.874;2022-11-15T18:18:05;103.22;;;49.60;;
25381;SDS011;16307;42.896;20.874;2022-11-15T18:20:57;101.45;;;51.65;;
25381;SDS011;16307;42.896;20.874;2022-11-15T18:23:57;99.07;;;51.25;;
25381;SDS011;16307;42.896;20.874;2022-11-15T18:26:44;101.28;;;48.80;;
25381;SDS011;16307;42.896;20.874;2022-11-15T18:29:30;101.85;;;47.75;;
25381;SDS011;16307;42.896;20.874;2022-11-15T18:32:17;112.57;;;50.65;;
25381;SDS011;16307;42.896;20.874;2022-11-15T18:35:03;96.43;;;49.83;;
25381;SDS011;16307;42.896;20.874;2022-11-15T18:37:50;95.80;;;47.55;;
25381;SDS011;16307;42.896;20.874;2022-11-15T18:40:36;90.22;;;44.97;;
25381;SDS011;16307;42.896;20.874;2022-11-15T18:43:22;91.13;;;44.10;;
25381;SDS011;16307;42.896;20.874;2022-11-15T18:46:10;94.32;;;44.92;;
25381;SDS011;16307;42.896;20.874;2022-11-15T18:48:58;94.68;;;47.17;;
25381;SDS011;16307;42.896;20.874;2022-11-15T18:51:45;95.97;;;47.17;;
25381;SDS011;16307;42.896;20.874;2022-11-15T18:54:31;107.53;;;49.55;;
25381;SDS011;16307;42.896;20.874;2022-11-15T18:57:18;97.15;;;46.90;;
25381;SDS011;16307;42.896;20.874;2022-11-15T19:00:04;94.45;;;47.47;;
25381;SDS011;16307;42.896;20.874;2022-11-15T19:02:52;100.63;;;47.58;;
25381;SDS011;16307;42.896;20.874;2022-11-15T19:05:39;101.55;;;46.50;;
25381;SDS011;16307;42.896;20.874;2022-11-15T19:08:25;104.22;;;48.45;;
25381;SDS011;16307;42.896;20.874;2022-11-15T19:11:16;103.25;;;47.40;;
25381;SDS011;16307;42.896;20.874;2022-11-15T19:14:06;99.95;;;49.63;;
25381;SDS011;16307;42.896;20.874;2022-11-15T19:16:54;90.38;;;45.65;;
25381;SDS011;16307;42.896;20.874;2022-11-15T19:19:40;97.97;;;48.35;;
25381;SDS011;16307;42.896;20.874;2022-11-15T19:22:28;96.38;;;49.78;;
25381;SDS011;16307;42.896;20.874;2022-11-15T19:25:14;111.47;;;51.42;;
25381;SDS011;16307;42.896;20.874;2022-11-15T19:28:03;106.75;;;50.90;;
25381;SDS011;16307;42.896;20.874;2022-11-15T19:30:49;108.82;;;50.90;;
25381;SDS011;16307;42.896;20.874;2022-11-15T19:33:37;98.43;;;48.72;;
25381;SDS011;16307;42.896;20.874;2022-11-15T19:36:25;96.88;;;48.75;;
25381;SDS011;16307;42.896;20.874;2022-11-15T19:39:13;105.82;;;51.22;;
25381;SDS011;16307;42.896;20.874;2022-11-15T19:42:01;100.80;;;48.80;;
25381;SDS011;16307;42.896;20.874;2022-11-15T19:44:47;98.18;;;49.40;;
25381;SDS011;16307;42.896;20.874;2022-11-15T19:47:33;111.90;;;51.35;;
25381;SDS011;16307;42.896;20.874;2022-11-15T19:50:19;117.55;;;53.03;;
25381;SDS011;16307;42.896;20.874;2022-11-15T19:53:05;98.25;;;49.03;;
25381;SDS011;16307;42.896;20.874;2022-11-15T19:55:52;108.90;;;55.22;;
25381;SDS011;16307;42.896;20.874;2022-11-15T19:58:40;102.80;;;48.55;;
25381;SDS011;16307;42.896;20.874;2022-11-15T20:01:27;108.80;;;52.75;;